Time;durP1;ratioP1;P1;durP2;ratioP2;P2;SDS_P1;SDS_P2;PMS_P1;PMS_P2;Temp;Humidity;BMP_temperature;BMP_pressure;BME280_temperature;BME280_humidity;BME280_pressure;Samples;Min_cycle;Max_cycle;Signal;HPM_P1;HPM_P2
2022/07/25 00:01:09;;;;;;;;;;;;;;;20.06;32.53;95389.16;5003957;28;20073;-61
2022/07/25 00:03:34;;;;;;;;;;;;;;;20.04;31.80;95388.59;5003965;28;20358;-60
2022/07/25 00:05:59;;;;;;;;;;;;;;;20.06;31.49;95386.47;5001730;28;19984;-60
2022/07/25 00:08:24;;;;;;;;;;;;;;;20.03;31.80;95381.56;5007267;28;20347;-61
2022/07/25 00:10:50;;;;;;;;;;;;;;;19.96;32.04;95378.22;5007100;28;19979;-60
2022/07/25 00:13:15;;;;;;;;;;;;;;;19.88;32.46;95373.19;5005099;28;20024;-61
2022/07/25 00:15:40;;;;;;;;;;;;;;;19.89;32.84;95372.94;5002917;28;20129;-61
2022/07/25 00:18:05;;;;;;;;;;;;;;;19.87;32.90;95366.94;5002332;28;20021;-61
2022/07/25 00:20:30;;;;;;;;;;;;;;;19.88;32.69;95362.38;5004800;28;20020;-61
2022/07/25 00:22:56;;;;;;;;;;;;;;;19.83;32.79;95353.13;5005563;28;20725;-60
2022/07/25 00:25:21;;;;;;;;;;;;;;;19.83;32.81;95358.53;5007155;28;19980;-61
2022/07/25 00:27:46;;;;;;;;;;;;;;;19.78;32.73;95355.72;5004277;28;19982;-60
2022/07/25 00:30:12;;;;;;;;;;;;;;;19.77;32.68;95356.78;4994801;28;19974;-61
2022/07/25 00:32:37;;;;;;;;;;;;;;;19.70;33.59;95351.53;4985349;28;20094;-60
2022/07/25 00:35:02;;;;;;;;;;;;;;;19.70;33.35;95348.03;5006257;28;20342;-60
2022/07/25 00:37:28;;;;;;;;;;;;;;;19.74;33.21;95340.25;5007293;28;19960;-61
2022/07/25 00:39:53;;;;;;;;;;;;;;;19.69;32.71;95349.09;5007309;28;20485;-60
2022/07/25 00:42:18;;;;;;;;;;;;;;;19.71;32.87;95338.84;5013453;28;20562;-60
2022/07/25 00:44:43;;;;;;;;;;;;;;;19.64;33.15;95346.31;5006294;28;19977;-61
2022/07/25 00:47:09;;;;;;;;;;;;;;;19.65;32.94;95339.84;5011332;28;19992;-61
2022/07/25 00:49:34;;;;;;;;;;;;;;;19.66;32.83;95336.91;5009009;28;19975;-60
2022/07/25 00:51:59;;;;;;;;;;;;;;;19.51;33.04;95347.41;5009408;28;20021;-60
2022/07/25 00:54:24;;;;;;;;;;;;;;;19.58;33.25;95340.78;5012560;28;20453;-61
2022/07/25 00:56:50;;;;;;;;;;;;;;;19.59;33.02;95342.44;5013139;28;20429;-61
2022/07/25 00:59:16;;;;;;;;;;;;;;;19.54;33.09;95341.50;5012194;28;20365;-61
2022/07/25 01:01:41;;;;;;;;;;;;;;;19.51;33.60;95337.44;5013259;28;19974;-60
2022/07/25 01:04:07;;;;;;;;;;;;;;;19.48;33.78;95337.94;5010197;28;20076;-61
2022/07/25 01:06:32;;;;;;;;;;;;;;;19.41;33.84;95337.25;4992024;28;20006;-61
2022/07/25 01:08:57;;;;;;;;;;;;;;;19.41;33.57;95337.25;5012525;28;20397;-60
2022/07/25 01:11:23;;;;;;;;;;;;;;;19.37;33.93;95336.91;5012335;28;20347;-61
2022/07/25 01:13:48;;;;;;;;;;;;;;;19.36;33.93;95329.88;5012318;28;19985;-61
2022/07/25 01:16:13;;;;;;;;;;;;;;;19.34;34.59;95329.28;5009153;28;20032;-61
2022/07/25 01:18:38;;;;;;;;;;;;;;;19.29;34.06;95330.03;5010365;28;20275;-61
2022/07/25 01:21:04;;;;;;;;;;;;;;;19.34;33.63;95323.88;5007852;28;20038;-61
2022/07/25 01:23:29;;;;;;;;;;;;;;;19.29;34.23;95324.63;5011520;28;20399;-60
2022/07/25 01:25:54;;;;;;;;;;;;;;;19.19;34.02;95319.00;5008882;28;20013;-61
2022/07/25 01:28:19;;;;;;;;;;;;;;;19.17;34.33;95321.13;5008081;28;20043;-60
2022/07/25 01:30:45;;;;;;;;;;;;;;;19.20;34.24;95324.16;5009461;28;19980;-61
2022/07/25 01:33:16;;;;;;;;;;;;;;;19.22;34.08;95326.63;5008088;28;20004;-60
2022/07/25 01:35:42;;;;;;;;;;;;;;;19.20;33.87;95313.38;5009961;28;19995;-60
2022/07/25 01:38:07;;;;;;;;;;;;;;;19.00;35.12;95313.78;5008298;28;20314;-61
2022/07/25 01:40:32;;;;;;;;;;;;;;;18.94;34.53;95304.78;5006929;28;19999;-61
2022/07/25 01:42:57;;;;;;;;;;;;;;;18.94;35.21;95306.66;5014458;28;19988;-60
2022/07/25 01:45:23;;;;;;;;;;;;;;;18.90;35.13;95300.91;5006168;28;20449;-61
2022/07/25 01:47:48;;;;;;;;;;;;;;;19.00;34.20;95299.50;5005667;28;19986;-61
2022/07/25 01:50:13;;;;;;;;;;;;;;;18.96;34.38;95293.75;5006456;28;20006;-61
2022/07/25 01:52:39;;;;;;;;;;;;;;;18.92;34.52;95293.41;5007183;28;20048;-60
2022/07/25 01:55:04;;;;;;;;;;;;;;;18.89;34.69;95290.38;5008368;28;20006;-60
2022/07/25 01:57:29;;;;;;;;;;;;;;;18.92;34.88;95285.31;5006561;28;19978;-60
2022/07/25 01:59:55;;;;;;;;;;;;;;;18.85;35.10;95289.22;5015448;28;20031;-60
2022/07/25 02:02:20;;;;;;;;;;;;;;;18.75;35.11;95282.56;5006644;28;19963;-61
2022/07/25 02:04:45;;;;;;;;;;;;;;;18.80;35.46;95281.84;5016678;28;19987;-60
2022/07/25 02:07:10;;;;;;;;;;;;;;;18.81;34.52;95273.53;5006194;28;20405;-61
2022/07/25 02:09:36;;;;;;;;;;;;;;;18.86;34.62;95280.09;5008511;28;19970;-61
2022/07/25 02:12:01;;;;;;;;;;;;;;;18.85;35.06;95270.34;5004935;28;19991;-60
2022/07/25 02:14:26;;;;;;;;;;;;;;;18.82;34.30;95277.03;5006403;28;19995;-60
2022/07/25 02:16:51;;;;;;;;;;;;;;;18.92;34.79;95271.84;5005892;28;20003;-60
2022/07/25 02:19:17;;;;;;;;;;;;;;;18.95;34.48;95273.25;5007673;28;19995;-61
2022/07/25 02:21:42;;;;;;;;;;;;;;;18.94;34.57;95280.50;5015842;28;20085;-60
2022/07/25 02:24:07;;;;;;;;;;;;;;;18.92;34.62;95271.00;5007760;28;19976;-60
2022/07/25 02:26:32;;;;;;;;;;;;;;;18.99;34.38;95277.09;5007270;28;20331;-60
2022/07/25 02:28:58;;;;;;;;;;;;;;;19.00;34.63;95275.22;5006837;28;20421;-60
2022/07/25 02:31:23;;;;;;;;;;;;;;;19.01;34.44;95274.16;5007595;28;19987;-61
2022/07/25 02:33:48;;;;;;;;;;;;;;;19.07;33.86;95267.81;5015776;28;20079;-60
2022/07/25 02:36:13;;;;;;;;;;;;;;;19.03;34.24;95267.47;5005884;28;20410;-61
2022/07/25 02:38:39;;;;;;;;;;;;;;;18.97;34.38;95260.34;5006163;28;20130;-60
2022/07/25 02:41:04;;;;;;;;;;;;;;;18.92;34.94;95261.06;5006853;28;19993;-59
2022/07/25 02:43:29;;;;;;;;;;;;;;;18.80;34.87;95258.38;5006108;28;20002;-60
2022/07/25 02:45:55;;;;;;;;;;;;;;;18.78;35.20;95260.53;5006288;28;20588;-60
2022/07/25 02:48:20;;;;;;;;;;;;;;;18.77;34.80;95248.06;4992511;28;19998;-60
2022/07/25 02:50:45;;;;;;;;;;;;;;;18.74;34.81;95253.97;5005099;28;20380;-60
2022/07/25 02:53:10;;;;;;;;;;;;;;;18.70;34.93;95247.41;5012100;28;19986;-60
2022/07/25 02:55:36;;;;;;;;;;;;;;;18.66;35.22;95246.25;5005882;28;19998;-61
2022/07/25 02:58:01;;;;;;;;;;;;;;;18.72;35.01;95253.38;5006918;28;20409;-60
2022/07/25 03:00:26;;;;;;;;;;;;;;;18.77;34.53;95245.38;5007236;28;20002;-60
2022/07/25 03:02:51;;;;;;;;;;;;;;;18.77;34.98;95237.28;5006065;28;20058;-60
2022/07/25 03:05:17;;;;;;;;;;;;;;;18.77;34.84;95242.69;5006505;28;20404;-61
2022/07/25 03:07:42;;;;;;;;;;;;;;;18.74;35.13;95237.78;5008492;28;20350;-60
2022/07/25 03:10:08;;;;;;;;;;;;;;;18.66;35.78;95235.47;5014560;28;20034;-61
2022/07/25 03:12:33;;;;;;;;;;;;;;;18.67;35.48;95234.41;5006020;28;19990;-60
2022/07/25 03:14:58;;;;;;;;;;;;;;;18.65;35.00;95233.81;5006951;28;19993;-60
2022/07/25 03:17:24;;;;;;;;;;;;;;;18.67;34.83;95240.59;5007387;28;20141;-60
2022/07/25 03:19:49;;;;;;;;;;;;;;;18.68;35.00;95233.34;5005281;28;19992;-60
2022/07/25 03:22:14;;;;;;;;;;;;;;;18.70;34.62;95239.34;5013066;28;19966;-60
2022/07/25 03:24:39;;;;;;;;;;;;;;;18.72;34.92;95234.50;5005984;28;20302;-60
2022/07/25 03:27:05;;;;;;;;;;;;;;;18.73;34.50;95225.34;5005106;28;20071;-61
2022/07/25 03:29:30;;;;;;;;;;;;;;;18.71;34.87;95229.34;5008062;28;20375;-60
2022/07/25 03:31:55;;;;;;;;;;;;;;;18.74;35.13;95226.19;5012431;28;19988;-60
2022/07/25 03:34:20;;;;;;;;;;;;;;;18.74;35.14;95221.63;5015384;28;19993;-60
2022/07/25 03:36:46;;;;;;;;;;;;;;;18.74;34.33;95220.78;5005204;28;19981;-60
2022/07/25 03:39:11;;;;;;;;;;;;;;;18.79;34.75;95219.00;5006423;28;20076;-60
2022/07/25 03:41:36;;;;;;;;;;;;;;;18.84;34.54;95215.59;5006258;28;20032;-59
2022/07/25 03:44:02;;;;;;;;;;;;;;;18.83;34.73;95219.34;5013984;28;19988;-60
2022/07/25 03:46:27;;;;;;;;;;;;;;;18.77;34.64;95213.03;5005552;28;20850;-60
2022/07/25 03:48:54;;;;;;;;;;;;;;;18.81;34.63;95206.13;5004430;28;20045;-60
2022/07/25 03:51:19;;;;;;;;;;;;;;;18.80;34.81;95214.44;5005071;28;20039;-60
2022/07/25 03:54:02;;;;;;;;;;;;;;;18.81;34.69;95211.50;5017662;28;20439;-60
2022/07/25 03:56:31;;;;;;;;;;;;;;;18.82;34.83;95212.31;5010310;28;19985;-60
2022/07/25 03:58:57;;;;;;;;;;;;;;;18.91;33.97;95210.06;5013860;28;20706;-61
2022/07/25 04:01:22;;;;;;;;;;;;;;;18.95;34.19;95208.50;5017941;28;19985;-59
2022/07/25 04:03:47;;;;;;;;;;;;;;;18.93;34.63;95207.91;5020109;28;19992;-61
2022/07/25 04:06:12;;;;;;;;;;;;;;;18.98;34.16;95202.63;5013576;28;19971;-61
2022/07/25 04:08:38;;;;;;;;;;;;;;;19.02;34.25;95201.09;5014435;28;20453;-61
2022/07/25 04:11:03;;;;;;;;;;;;;;;19.02;34.22;95197.56;5015055;28;20060;-60
2022/07/25 04:13:28;;;;;;;;;;;;;;;19.06;34.12;95196.84;5009005;28;19991;-61
2022/07/25 04:15:54;;;;;;;;;;;;;;;19.04;34.44;95192.75;5008214;28;20041;-60
2022/07/25 04:18:19;;;;;;;;;;;;;;;19.09;34.64;95192.84;4991247;28;19964;-60
2022/07/25 04:20:44;;;;;;;;;;;;;;;19.08;34.12;95177.72;5007148;28;20442;-60
2022/07/25 04:23:09;;;;;;;;;;;;;;;19.19;33.84;95184.09;5009742;28;20067;-61
2022/07/25 04:25:34;;;;;;;;;;;;;;;19.26;33.86;95181.25;5022440;28;19974;-61
2022/07/25 04:28:00;;;;;;;;;;;;;;;19.32;33.49;95181.13;4990387;28;20084;-60
2022/07/25 04:30:25;;;;;;;;;;;;;;;19.43;33.44;95181.28;5009463;28;19983;-60
2022/07/25 04:32:50;;;;;;;;;;;;;;;19.54;33.48;95174.16;5007114;28;19989;-60
2022/07/25 04:35:15;;;;;;;;;;;;;;;19.62;33.41;95171.06;5007325;28;19999;-61
2022/07/25 04:37:41;;;;;;;;;;;;;;;19.67;32.87;95178.41;5009096;28;20509;-60
2022/07/25 04:40:06;;;;;;;;;;;;;;;19.73;33.41;95166.63;5013561;28;20013;-60
2022/07/25 04:42:31;;;;;;;;;;;;;;;19.78;32.82;95171.28;5008847;28;19969;-60
2022/07/25 04:44:56;;;;;;;;;;;;;;;19.81;32.77;95160.78;5008096;28;19979;-61
2022/07/25 04:47:22;;;;;;;;;;;;;;;19.89;33.10;95153.34;5008884;28;20117;-60
2022/07/25 04:49:47;;;;;;;;;;;;;;;19.96;33.15;95159.41;5008389;28;20017;-61
2022/07/25 04:52:12;;;;;;;;;;;;;;;20.07;33.09;95160.34;5006672;28;19984;-60
2022/07/25 04:54:38;;;;;;;;;;;;;;;20.04;33.13;95158.97;5009219;28;20383;-60
2022/07/25 04:57:04;;;;;;;;;;;;;;;20.16;33.05;95155.34;5010734;28;19959;-60
2022/07/25 04:59:29;;;;;;;;;;;;;;;20.23;33.63;95155.97;4994441;28;19992;-60
2022/07/25 05:01:54;;;;;;;;;;;;;;;20.25;32.97;95145.72;4999808;28;19964;-61
2022/07/25 05:04:19;;;;;;;;;;;;;;;20.34;32.84;95143.38;5005994;28;19990;-61
2022/07/25 05:06:45;;;;;;;;;;;;;;;20.42;33.11;95150.22;5006337;28;20008;-61
2022/07/25 05:09:10;;;;;;;;;;;;;;;20.56;32.52;95142.56;5007244;28;20203;-60
2022/07/25 05:11:35;;;;;;;;;;;;;;;20.66;32.94;95148.09;5007438;28;19985;-60
2022/07/25 05:14:00;;;;;;;;;;;;;;;20.79;32.84;95146.88;5018019;28;19983;-61
2022/07/25 05:16:26;;;;;;;;;;;;;;;20.95;32.34;95147.00;5007477;28;20355;-60
2022/07/25 05:18:51;;;;;;;;;;;;;;;21.08;32.22;95140.38;5006592;28;20421;-60
2022/07/25 05:21:16;;;;;;;;;;;;;;;21.23;32.21;95136.97;5013250;28;19980;-59
2022/07/25 05:23:41;;;;;;;;;;;;;;;21.33;32.50;95139.78;5009844;28;20426;-61
2022/07/25 05:26:06;;;;;;;;;;;;;;;21.52;31.68;95128.56;5006892;28;20348;-61
2022/07/25 05:28:32;;;;;;;;;;;;;;;21.59;32.98;95133.75;5006396;28;20025;-60
2022/07/25 05:30:57;;;;;;;;;;;;;;;21.72;31.73;95125.13;5007823;28;20042;-60
2022/07/25 05:33:22;;;;;;;;;;;;;;;21.87;32.10;95129.84;5007405;28;20474;-61
2022/07/25 05:35:47;;;;;;;;;;;;;;;22.07;32.18;95127.53;5006857;28;20488;-60
2022/07/25 05:38:13;;;;;;;;;;;;;;;22.26;31.39;95125.16;5009291;28;19970;-61
2022/07/25 05:40:38;;;;;;;;;;;;;;;22.43;30.86;95119.50;5005760;28;19992;-60
2022/07/25 05:43:03;;;;;;;;;;;;;;;22.55;30.89;95124.75;5009374;28;20488;-60
2022/07/25 05:45:29;;;;;;;;;;;;;;;22.69;30.68;95125.03;5020184;28;19961;-62
2022/07/25 05:47:54;;;;;;;;;;;;;;;23.02;30.14;95128.31;5009041;28;19973;-60
2022/07/25 05:50:19;;;;;;;;;;;;;;;23.23;30.00;95120.22;5007966;28;20067;-60
2022/07/25 05:52:44;;;;;;;;;;;;;;;23.21;28.74;95121.59;5005456;28;20016;-61
2022/07/25 05:55:09;;;;;;;;;;;;;;;23.41;28.74;95128.91;5009391;28;20016;-62
2022/07/25 05:57:35;;;;;;;;;;;;;;;23.45;28.33;95121.81;5006348;28;19947;-60
2022/07/25 06:00:01;;;;;;;;;;;;;;;23.61;27.82;95125.34;5008236;28;20514;-62
2022/07/25 06:02:26;;;;;;;;;;;;;;;23.89;27.96;95131.28;5014298;28;19962;-60
2022/07/25 06:04:51;;;;;;;;;;;;;;;23.93;27.61;95124.22;5005714;28;19967;-62
2022/07/25 06:07:17;;;;;;;;;;;;;;;24.03;27.28;95128.00;5011650;28;20011;-61
2022/07/25 06:09:42;;;;;;;;;;;;;;;24.21;27.64;95129.28;5008969;28;19960;-61
2022/07/25 06:12:07;;;;;;;;;;;;;;;24.40;26.86;95126.78;5006364;28;20008;-60
2022/07/25 06:14:32;;;;;;;;;;;;;;;24.47;26.95;95120.22;5005466;28;20541;-62
2022/07/25 06:16:57;;;;;;;;;;;;;;;24.37;26.72;95130.03;5006086;28;20242;-61
2022/07/25 06:19:23;;;;;;;;;;;;;;;24.59;26.49;95120.69;5006997;28;19971;-61
2022/07/25 06:21:48;;;;;;;;;;;;;;;24.58;26.56;95124.53;5005915;28;20070;-60
2022/07/25 06:24:13;;;;;;;;;;;;;;;24.89;26.73;95118.06;5004982;28;19992;-61
2022/07/25 06:26:39;;;;;;;;;;;;;;;24.99;26.75;95117.19;5006710;28;20000;-62
2022/07/25 06:29:04;;;;;;;;;;;;;;;25.29;26.54;95115.34;5002792;28;20050;-60
2022/07/25 06:31:29;;;;;;;;;;;;;;;25.39;25.58;95109.78;5003313;28;20529;-62
2022/07/25 06:33:55;;;;;;;;;;;;;;;25.44;26.12;95112.47;5000491;28;19957;-61
2022/07/25 06:36:20;;;;;;;;;;;;;;;24.86;26.78;95113.19;5006485;28;20322;-62
2022/07/25 06:38:45;;;;;;;;;;;;;;;25.03;26.42;95112.81;5005034;28;20074;-61
2022/07/25 06:41:14;;;;;;;;;;;;;;;25.44;26.09;95109.75;5005172;28;20019;-62
2022/07/25 06:43:39;;;;;;;;;;;;;;;25.52;25.65;95113.00;5001661;28;20352;-61
2022/07/25 06:46:04;;;;;;;;;;;;;;;25.83;24.37;95107.22;5004652;28;20009;-62
2022/07/25 06:48:31;;;;;;;;;;;;;;;24.87;25.94;95115.63;4999629;28;21608;-61
2022/07/25 06:50:57;;;;;;;;;;;;;;;25.22;25.93;95102.84;4999940;28;20081;-62
2022/07/25 06:53:22;;;;;;;;;;;;;;;25.68;25.52;95103.56;5003589;28;20078;-61
2022/07/25 06:55:47;;;;;;;;;;;;;;;25.74;25.33;95101.59;5003398;28;20183;-61
2022/07/25 06:58:12;;;;;;;;;;;;;;;25.55;25.46;95098.75;5000901;28;19973;-61
2022/07/25 07:00:38;;;;;;;;;;;;;;;24.77;26.62;95100.16;5013257;28;20026;-60
2022/07/25 07:03:03;;;;;;;;;;;;;;;25.05;26.61;95100.53;5004963;28;20412;-62
2022/07/25 07:05:29;;;;;;;;;;;;;;;25.54;25.74;95097.16;5001530;28;19942;-61
2022/07/25 07:07:54;;;;;;;;;;;;;;;25.15;26.77;95090.69;5006268;28;20047;-62
2022/07/25 07:10:20;;;;;;;;;;;;;;;24.87;26.59;95091.13;5000532;28;20436;-60
2022/07/25 07:12:46;;;;;;;;;;;;;;;26.35;24.89;95093.78;5000309;28;20019;-61
2022/07/25 07:15:11;;;;;;;;;;;;;;;26.14;25.15;95087.81;4999776;28;20017;-61
2022/07/25 07:17:36;;;;;;;;;;;;;;;26.18;25.21;95096.22;4982979;28;20025;-60
2022/07/25 07:20:02;;;;;;;;;;;;;;;25.15;26.84;95090.69;5007411;28;19982;-62
2022/07/25 07:22:27;;;;;;;;;;;;;;;26.58;24.57;95080.41;5011704;28;19954;-61
2022/07/25 07:24:53;;;;;;;;;;;;;;;26.27;25.22;95083.53;5002121;28;20029;-61
2022/07/25 07:27:18;;;;;;;;;;;;;;;25.45;26.14;95081.41;5002208;28;20056;-62
2022/07/25 07:29:43;;;;;;;;;;;;;;;25.66;26.74;95088.59;5008769;28;20024;-61
2022/07/25 07:32:08;;;;;;;;;;;;;;;26.58;25.38;95076.88;5006328;28;20012;-62
2022/07/25 07:34:34;;;;;;;;;;;;;;;25.95;26.00;95082.25;5013126;28;20033;-61
2022/07/25 07:36:59;;;;;;;;;;;;;;;26.26;25.02;95081.09;5004527;28;20254;-62
2022/07/25 07:39:24;;;;;;;;;;;;;;;26.07;25.00;95084.63;5013584;28;19964;-62
2022/07/25 07:41:50;;;;;;;;;;;;;;;26.83;24.42;95085.78;5006787;28;20347;-61
2022/07/25 07:44:15;;;;;;;;;;;;;;;26.86;24.89;95093.38;5007830;28;19984;-60
2022/07/25 07:46:40;;;;;;;;;;;;;;;26.86;25.12;95085.19;5007534;28;19981;-62
2022/07/25 07:49:05;;;;;;;;;;;;;;;27.15;24.14;95084.22;5005649;28;20792;-62
2022/07/25 07:51:31;;;;;;;;;;;;;;;26.93;24.50;95080.19;5003632;28;20050;-61
2022/07/25 07:56:40;;;;;;;;;;;;;;;27.46;24.84;95075.47;5004287;28;20104;-61
2022/07/25 07:59:06;;;;;;;;;;;;;;;27.49;24.37;95077.63;5005947;28;19959;-61
2022/07/25 08:01:31;;;;;;;;;;;;;;;26.68;25.02;95076.72;5004754;28;19949;-61
2022/07/25 08:03:56;;;;;;;;;;;;;;;26.16;25.56;95069.22;5004271;28;19995;-62
2022/07/25 08:06:21;;;;;;;;;;;;;;;27.24;24.63;95070.69;5012604;28;19942;-62
2022/07/25 08:08:47;;;;;;;;;;;;;;;27.48;24.00;95070.53;5010258;28;19997;-61
2022/07/25 08:11:12;;;;;;;;;;;;;;;27.54;24.20;95067.69;5007712;28;20001;-63
2022/07/25 08:13:37;;;;;;;;;;;;;;;28.06;23.71;95072.19;5008270;28;20431;-61
2022/07/25 08:16:03;;;;;;;;;;;;;;;28.07;23.59;95069.16;5006962;28;20293;-63
2022/07/25 08:18:34;;;;;;;;;;;;;;;27.15;24.05;95084.22;5012875;28;19935;-62
2022/07/25 08:21:01;;;;;;;;;;;;;;;28.26;22.86;95079.19;5004129;28;20199;-61
2022/07/25 08:23:26;;;;;;;;;;;;;;;25.52;26.43;95072.91;5014731;28;20469;-61
2022/07/25 08:25:52;;;;;;;;;;;;;;;26.30;26.32;95066.59;5006496;28;19951;-62
2022/07/25 08:28:17;;;;;;;;;;;;;;;28.08;23.50;95065.31;5010188;28;20443;-61
2022/07/25 08:30:42;;;;;;;;;;;;;;;28.20;23.56;95062.06;5003847;28;19962;-63
2022/07/25 08:33:09;;;;;;;;;;;;;;;28.21;23.22;95060.16;5003480;28;19936;-62
2022/07/25 08:35:34;;;;;;;;;;;;;;;27.61;24.18;95058.00;5002688;28;20042;-62
2022/07/25 08:38:00;;;;;;;;;;;;;;;27.60;23.74;95055.56;5005366;28;19947;-61
2022/07/25 08:40:25;;;;;;;;;;;;;;;26.95;25.12;95072.47;5003360;28;19960;-62
2022/07/25 08:42:51;;;;;;;;;;;;;;;25.18;27.50;95060.13;5004144;28;19963;-62
2022/07/25 08:45:18;;;;;;;;;;;;;;;27.74;23.95;95045.47;5008158;28;20270;-62
2022/07/25 08:47:43;;;;;;;;;;;;;;;28.39;23.59;95058.41;5006419;28;19963;-61
2022/07/25 08:50:09;;;;;;;;;;;;;;;28.56;23.83;95067.88;5011057;28;19942;-61
2022/07/25 08:52:35;;;;;;;;;;;;;;;28.20;23.63;95058.53;5003822;28;20603;-63
2022/07/25 08:55:02;;;;;;;;;;;;;;;28.56;23.42;95054.19;5005593;28;19972;-62
2022/07/25 08:57:27;;;;;;;;;;;;;;;28.18;23.68;95061.59;5004454;28;20059;-61
2022/07/25 08:59:55;;;;;;;;;;;;;;;28.35;23.58;95057.41;5013188;28;20007;-64
2022/07/25 09:02:20;;;;;;;;;;;;;;;28.01;23.80;95054.78;5014471;28;19945;-63
2022/07/25 09:04:45;;;;;;;;;;;;;;;28.81;22.85;95057.50;5007384;28;19958;-62
2022/07/25 09:07:11;;;;;;;;;;;;;;;27.34;24.68;95053.31;5003516;28;19959;-60
2022/07/25 09:09:37;;;;;;;;;;;;;;;28.20;23.91;95045.66;5003019;28;20349;-61
2022/07/25 09:12:02;;;;;;;;;;;;;;;27.00;25.08;95049.75;5003446;28;19926;-62
2022/07/25 09:14:31;;;;;;;;;;;;;;;26.74;25.86;95037.31;5006239;28;20307;-61
2022/07/25 09:16:56;;;;;;;;;;;;;;;28.49;23.51;95041.75;5006268;28;19978;-60
2022/07/25 09:19:22;;;;;;;;;;;;;;;28.65;23.63;95038.66;5005557;28;20370;-63
2022/07/25 09:22:17;;;;;;;;;;;;;;;28.94;23.52;95045.66;5005049;28;19984;-63
2022/07/25 09:24:45;;;;;;;;;;;;;;;26.60;26.18;95037.28;4990018;28;19984;-61
2022/07/25 09:27:10;;;;;;;;;;;;;;;28.51;23.74;95039.50;5002900;28;19967;-60
2022/07/25 09:29:37;;;;;;;;;;;;;;;29.41;21.98;95047.25;5003819;28;19969;-62
2022/07/25 09:32:12;;;;;;;;;;;;;;;29.68;21.58;95038.03;5004941;28;19925;-60
2022/07/25 09:34:38;;;;;;;;;;;;;;;29.67;21.77;95039.16;5004127;28;20069;-60
2022/07/25 09:37:04;;;;;;;;;;;;;;;30.23;20.97;95043.38;5006172;28;20402;-62
2022/07/25 09:39:32;;;;;;;;;;;;;;;29.47;22.10;95045.19;4989830;28;19966;-62
2022/07/25 09:41:58;;;;;;;;;;;;;;;29.47;22.95;95046.00;5002575;28;19964;-61
2022/07/25 09:44:28;;;;;;;;;;;;;;;29.43;21.90;95045.81;5003043;28;19995;-63
2022/07/25 09:46:53;;;;;;;;;;;;;;;29.33;21.96;95050.75;5011760;28;19950;-62
2022/07/25 09:49:19;;;;;;;;;;;;;;;29.69;21.50;95053.38;5005640;28;20393;-62
2022/07/25 09:51:44;;;;;;;;;;;;;;;27.93;22.30;95047.28;5001021;28;20337;-62
2022/07/25 09:54:09;;;;;;;;;;;;;;;27.40;23.06;95043.91;4989400;28;20054;-59
2022/07/25 09:56:34;;;;;;;;;;;;;;;28.40;22.14;95043.59;5003155;28;19992;-63
2022/07/25 09:59:00;;;;;;;;;;;;;;;27.73;22.54;95038.38;5006208;28;20088;-62
2022/07/25 10:01:26;;;;;;;;;;;;;;;27.71;22.25;95017.94;5002879;28;20055;-61
2022/07/25 10:03:52;;;;;;;;;;;;;;;27.83;22.41;95028.38;4988263;28;20033;-61
2022/07/25 10:06:29;;;;;;;;;;;;;;;26.59;23.19;95030.19;5002215;28;19942;-61
2022/07/25 10:08:54;;;;;;;;;;;;;;;27.68;22.64;95030.28;5004106;28;19954;-62
2022/07/25 10:11:20;;;;;;;;;;;;;;;28.40;22.47;95027.19;5003830;28;20797;-59
2022/07/25 10:13:45;;;;;;;;;;;;;;;27.07;23.39;95024.78;5011044;28;20441;-61
2022/07/25 10:16:17;;;;;;;;;;;;;;;26.41;24.57;95034.50;5009842;28;20001;-61
2022/07/25 10:18:49;;;;;;;;;;;;;;;26.62;24.10;95013.22;5005370;28;19948;-60
2022/07/25 10:21:14;;;;;;;;;;;;;;;26.70;24.41;95036.31;5008338;28;20016;-60
2022/07/25 10:23:40;;;;;;;;;;;;;;;26.80;24.83;95015.41;5004831;28;20003;-62
2022/07/25 10:26:09;;;;;;;;;;;;;;;26.51;24.44;95041.72;5002776;28;20086;-61
2022/07/25 10:28:40;;;;;;;;;;;;;;;26.79;24.54;95027.44;5001602;28;19992;-61
2022/07/25 10:31:26;;;;;;;;;;;;;;;26.22;25.43;95034.50;5005428;28;20415;-62
2022/07/25 10:34:01;;;;;;;;;;;;;;;26.55;25.58;95050.16;5002172;28;20493;-60
2022/07/25 10:36:28;;;;;;;;;;;;;;;26.82;24.32;95035.81;5005569;28;19983;-61
2022/07/25 10:38:57;;;;;;;;;;;;;;;25.75;26.22;95036.97;5003783;28;19968;-61
2022/07/25 10:41:24;;;;;;;;;;;;;;;27.09;23.73;95033.50;4986612;28;19968;-62
2022/07/25 10:43:50;;;;;;;;;;;;;;;27.16;24.55;95036.69;5004686;28;20436;-59
2022/07/25 10:46:19;;;;;;;;;;;;;;;26.77;24.80;95035.09;5006806;28;20571;-60
2022/07/25 10:48:55;;;;;;;;;;;;;;;26.20;26.45;95056.63;4982483;28;20428;-61
2022/07/25 10:51:24;;;;;;;;;;;;;;;26.09;25.39;95055.94;5002994;28;19963;-60
2022/07/25 10:53:49;;;;;;;;;;;;;;;25.45;26.67;95058.78;5005233;28;20452;-61
2022/07/25 10:56:15;;;;;;;;;;;;;;;26.26;25.73;95049.19;5003579;28;20006;-62
2022/07/25 10:58:41;;;;;;;;;;;;;;;26.21;25.43;95062.91;5006248;28;19952;-62
2022/07/25 11:01:06;;;;;;;;;;;;;;;26.81;25.21;95049.81;5005812;28;19971;-66
2022/07/25 11:03:32;;;;;;;;;;;;;;;26.70;25.41;95058.13;5011421;28;19997;-64
2022/07/25 11:05:57;;;;;;;;;;;;;;;26.78;25.11;95056.63;4987851;28;20172;-65
2022/07/25 11:08:29;;;;;;;;;;;;;;;27.12;24.95;95049.28;5007523;28;20390;-66
2022/07/25 11:10:54;;;;;;;;;;;;;;;27.45;25.20;95051.19;5005788;28;20181;-64
2022/07/25 11:13:19;;;;;;;;;;;;;;;26.55;26.21;95055.59;5008565;28;19985;-66
2022/07/25 11:15:45;;;;;;;;;;;;;;;25.54;26.47;95065.28;5005327;28;19980;-67
2022/07/25 11:18:10;;;;;;;;;;;;;;;26.03;25.58;95059.84;4990407;28;20378;-65
2022/07/25 11:20:36;;;;;;;;;;;;;;;25.93;26.65;95068.91;5005152;28;20730;-65
2022/07/25 11:23:01;;;;;;;;;;;;;;;25.77;26.31;95075.66;5007019;28;20315;-66
2022/07/25 11:25:26;;;;;;;;;;;;;;;25.33;26.71;95070.88;5010387;28;19952;-65
2022/07/25 11:27:56;;;;;;;;;;;;;;;25.70;26.67;95062.38;5005911;28;20455;-64
2022/07/25 11:30:21;;;;;;;;;;;;;;;25.77;27.50;95068.31;5004365;28;20430;-65
2022/07/25 11:32:54;;;;;;;;;;;;;;;25.26;28.22;95066.88;5002719;28;20038;-65
2022/07/25 11:35:20;;;;;;;;;;;;;;;25.63;28.50;95067.38;5003601;28;20092;-65
2022/07/25 11:37:47;;;;;;;;;;;;;;;26.14;27.15;95057.81;4983527;28;20153;-64
2022/07/25 11:40:15;;;;;;;;;;;;;;;25.29;28.78;95055.41;5000350;28;19970;-65
2022/07/25 11:42:44;;;;;;;;;;;;;;;25.10;29.10;95056.13;5005904;28;19976;-65
2022/07/25 11:45:19;;;;;;;;;;;;;;;26.22;28.62;95051.69;5001519;28;19998;-65
2022/07/25 11:47:44;;;;;;;;;;;;;;;26.18;28.42;95042.47;5002635;28;19965;-65
2022/07/25 11:50:13;;;;;;;;;;;;;;;26.54;26.78;95043.06;5011700;28;20158;-64
2022/07/25 11:52:39;;;;;;;;;;;;;;;26.55;26.65;95045.50;5000777;28;20053;-65
2022/07/25 11:55:05;;;;;;;;;;;;;;;26.83;27.19;95036.66;5005097;28;20419;-65
2022/07/25 11:57:31;;;;;;;;;;;;;;;26.99;28.29;95054.38;5004750;28;20428;-65
2022/07/25 11:59:58;;;;;;;;;;;;;;;25.87;29.94;95056.47;5004147;28;20039;-64
2022/07/25 12:02:24;;;;;;;;;;;;;;;26.17;31.00;95057.19;4985767;28;19987;-65
2022/07/25 12:04:53;;;;;;;;;;;;;;;25.92;31.18;95056.41;5001773;28;19989;-65
2022/07/25 12:07:18;;;;;;;;;;;;;;;26.34;30.67;95066.81;5000275;28;19975;-65
2022/07/25 12:09:45;;;;;;;;;;;;;;;25.71;31.20;95083.09;4984871;28;20014;-64
2022/07/25 12:12:10;;;;;;;;;;;;;;;25.26;30.83;95107.72;4983117;28;19968;-65
2022/07/25 12:14:42;;;;;;;;;;;;;;;24.49;33.02;95109.88;4987600;28;20650;-65
2022/07/25 12:17:07;;;;;;;;;;;;;;;24.73;32.73;95099.13;4989096;28;19949;-64
2022/07/25 12:19:32;;;;;;;;;;;;;;;24.95;33.06;95093.25;5004571;28;20398;-64
2022/07/25 12:21:58;;;;;;;;;;;;;;;24.77;33.67;95083.84;5010031;28;20401;-64
2022/07/25 12:24:23;;;;;;;;;;;;;;;22.39;37.74;95092.13;5005325;28;19980;-64
2022/07/25 12:26:48;;;;;;;;;;;;;;;23.56;37.07;95090.06;5006072;28;20242;-65
2022/07/25 12:29:14;;;;;;;;;;;;;;;24.07;35.12;95088.28;5007140;28;20669;-64
2022/07/25 12:31:39;;;;;;;;;;;;;;;24.56;35.84;95094.88;5012981;28;19974;-64
2022/07/25 12:34:04;;;;;;;;;;;;;;;24.29;34.22;95100.69;5005810;28;20041;-65
2022/07/25 12:36:29;;;;;;;;;;;;;;;24.01;34.81;95084.78;5004635;28;20054;-64
2022/07/25 12:38:55;;;;;;;;;;;;;;;25.18;33.27;95079.19;5004906;28;20076;-65
2022/07/25 12:41:22;;;;;;;;;;;;;;;25.41;32.35;95076.81;5004273;28;20016;-65
2022/07/25 12:43:48;;;;;;;;;;;;;;;26.07;30.84;95062.81;5008130;28;20103;-64